Time;durP1;ratioP1;P1;durP2;ratioP2;P2;SDS_P1;SDS_P2;PMS_P1;PMS_P2;Temp;Humidity;BMP_temperature;BMP_pressure;BME280_temperature;BME280_humidity;BME280_pressure;Samples;Min_cycle;Max_cycle;Signal;HPM_P1;HPM_P2
2024/01/25 00:00:25;;;;;;;48.25;6.55;;;8.60;99.90;;;;;;5052686;28;20379;-76
2024/01/25 00:02:51;;;;;;;55.03;6.35;;;8.60;99.90;;;;;;5066237;28;20071;-76
2024/01/25 00:05:17;;;;;;;47.67;6.13;;;8.60;99.90;;;;;;5065845;28;20025;-76
2024/01/25 00:07:49;;;;;;;40.35;5.75;;;8.60;99.90;;;;;;5064742;28;20476;-76
2024/01/25 00:10:16;;;;;;;52.88;6.80;;;8.60;99.90;;;;;;5065565;28;20594;-76
2024/01/25 00:12:43;;;;;;;46.90;6.22;;;8.60;99.90;;;;;;5057500;28;20052;-76
2024/01/25 00:15:09;;;;;;;48.33;6.15;;;8.50;99.90;;;;;;5058657;28;20074;-76
2024/01/25 00:17:35;;;;;;;45.85;6.25;;;8.50;99.90;;;;;;5056902;28;20103;-76
2024/01/25 00:20:01;;;;;;;45.75;6.45;;;8.50;99.90;;;;;;5067113;28;20124;-76
2024/01/25 00:22:27;;;;;;;51.42;6.85;;;8.50;99.90;;;;;;5060515;28;20017;-76
2024/01/25 00:24:52;;;;;;;47.10;6.93;;;8.50;99.90;;;;;;5061669;28;20031;-76
2024/01/25 00:27:18;;;;;;;34.75;5.68;;;8.50;99.90;;;;;;5063218;28;20055;-76
2024/01/25 00:29:43;;;;;;;39.05;6.13;;;8.50;99.90;;;;;;5063012;28;20102;-76
2024/01/25 00:32:09;;;;;;;51.33;7.18;;;8.50;99.90;;;;;;5056348;28;20114;-76
2024/01/25 00:34:35;;;;;;;54.38;7.30;;;8.50;99.90;;;;;;5049862;28;20025;-76
2024/01/25 00:37:01;;;;;;;44.20;6.40;;;8.50;99.90;;;;;;5068479;28;20020;-76
2024/01/25 00:39:27;;;;;;;47.70;6.25;;;8.50;99.90;;;;;;5059418;28;20395;-76
2024/01/25 00:41:58;;;;;;;44.13;6.75;;;8.40;99.90;;;;;;5057100;28;20017;-76
2024/01/25 00:44:24;;;;;;;46.88;6.70;;;8.40;99.90;;;;;;5058591;28;20104;-76
2024/01/25 00:46:52;;;;;;;50.30;7.07;;;8.40;99.90;;;;;;5054367;28;20440;-76
2024/01/25 00:49:18;;;;;;;49.28;6.63;;;8.40;99.90;;;;;;5057289;28;20024;-76
2024/01/25 00:51:47;;;;;;;51.85;6.82;;;8.40;99.90;;;;;;5070748;28;20028;-76
2024/01/25 00:54:16;;;;;;;46.13;6.68;;;8.30;99.90;;;;;;5053578;28;20070;-76
2024/01/25 00:56:42;;;;;;;55.03;6.50;;;8.30;99.90;;;;;;5058824;28;20020;-76
2024/01/25 00:59:08;;;;;;;43.83;6.35;;;8.30;99.90;;;;;;5058499;28;20035;-76
2024/01/25 01:01:34;;;;;;;41.83;5.85;;;8.30;99.90;;;;;;5053120;28;20227;-76
2024/01/25 01:04:00;;;;;;;34.15;4.97;;;8.20;99.90;;;;;;5053622;28;20492;-76
2024/01/25 01:06:26;;;;;;;46.47;6.15;;;8.20;99.90;;;;;;5058647;28;20096;-76
2024/01/25 01:08:52;;;;;;;48.55;6.50;;;8.20;99.90;;;;;;5055745;28;20024;-76
2024/01/25 01:11:18;;;;;;;46.92;6.68;;;8.20;99.90;;;;;;5062166;28;20579;-76
2024/01/25 01:13:44;;;;;;;46.22;5.60;;;8.20;99.90;;;;;;5063021;28;20033;-76
2024/01/25 01:16:09;;;;;;;42.20;6.07;;;8.20;99.90;;;;;;5058135;28;20094;-76
2024/01/25 01:18:35;;;;;;;48.78;6.55;;;8.20;99.90;;;;;;5054912;28;20068;-76
2024/01/25 01:21:00;;;;;;;36.53;5.78;;;8.10;99.90;;;;;;5057578;28;20027;-76
2024/01/25 01:23:26;;;;;;;48.28;6.22;;;8.10;99.90;;;;;;5055347;28;20024;-76
2024/01/25 01:25:51;;;;;;;42.78;6.30;;;8.10;99.90;;;;;;5057595;28;20419;-76
2024/01/25 01:28:17;;;;;;;42.90;6.53;;;8.10;99.90;;;;;;5062190;28;20036;-76
2024/01/25 01:30:43;;;;;;;50.15;6.88;;;8.10;99.90;;;;;;5059763;28;20037;-76
2024/01/25 01:33:09;;;;;;;49.63;6.75;;;8.10;99.90;;;;;;5050278;28;20084;-76
2024/01/25 01:35:34;;;;;;;56.10;7.40;;;8.10;99.90;;;;;;5053737;28;20071;-76
2024/01/25 01:38:00;;;;;;;45.03;7.38;;;8.00;99.90;;;;;;5051758;28;20025;-76
2024/01/25 01:40:25;;;;;;;44.72;6.15;;;8.00;99.90;;;;;;5068940;28;20025;-76
2024/01/25 01:42:51;;;;;;;51.65;7.10;;;8.00;99.90;;;;;;5055776;28;20021;-76
2024/01/25 01:45:16;;;;;;;45.67;6.47;;;8.00;99.90;;;;;;5061196;28;20082;-76
2024/01/25 01:47:42;;;;;;;51.15;6.85;;;8.00;99.90;;;;;;5063043;28;20041;-76
2024/01/25 01:50:09;;;;;;;44.30;7.18;;;8.00;99.90;;;;;;5054001;28;20021;-76
2024/01/25 01:52:36;;;;;;;52.85;7.45;;;8.00;99.90;;;;;;5055592;28;20309;-76
2024/01/25 01:55:02;;;;;;;49.85;6.60;;;7.90;99.90;;;;;;5056440;28;20479;-76
2024/01/25 01:57:28;;;;;;;48.95;7.45;;;7.90;99.90;;;;;;5053136;28;20036;-76
2024/01/25 01:59:54;;;;;;;43.03;7.30;;;7.90;99.90;;;;;;5061443;28;20091;-76
2024/01/25 02:02:20;;;;;;;55.95;7.25;;;7.90;99.90;;;;;;5060284;28;20020;-76
2024/01/25 02:04:45;;;;;;;40.97;6.20;;;7.90;99.90;;;;;;5060516;28;20503;-76
2024/01/25 02:07:12;;;;;;;49.10;6.63;;;7.80;99.90;;;;;;5058537;28;20533;-76
2024/01/25 02:09:37;;;;;;;39.75;6.57;;;7.80;99.90;;;;;;5062903;28;20029;-76
2024/01/25 02:12:03;;;;;;;53.40;7.15;;;7.80;99.90;;;;;;5060287;28;20066;-76
2024/01/25 02:14:30;;;;;;;46.40;6.68;;;7.80;99.90;;;;;;5064542;28;20100;-76
2024/01/25 02:16:56;;;;;;;53.42;6.88;;;7.80;99.90;;;;;;5050198;28;20086;-76
2024/01/25 02:19:21;;;;;;;47.08;7.40;;;7.80;99.90;;;;;;5057480;28;20131;-76
2024/01/25 02:21:48;;;;;;;49.72;7.18;;;7.70;99.90;;;;;;5060210;28;20360;-76
2024/01/25 02:24:14;;;;;;;48.55;6.65;;;7.70;99.90;;;;;;5062545;28;20479;-76
2024/01/25 02:26:39;;;;;;;41.78;6.13;;;7.70;99.90;;;;;;5061945;28;20083;-76
2024/01/25 02:29:07;;;;;;;50.85;6.60;;;7.70;99.90;;;;;;5060609;28;20032;-76
2024/01/25 02:31:33;;;;;;;56.00;7.32;;;7.70;99.90;;;;;;5067820;28;20017;-76
2024/01/25 02:33:58;;;;;;;45.08;6.75;;;7.70;99.90;;;;;;5065395;28;20104;-76
2024/01/25 02:36:24;;;;;;;46.35;6.38;;;7.60;99.90;;;;;;5059114;28;20101;-76
2024/01/25 02:38:49;;;;;;;40.67;6.07;;;7.50;99.90;;;;;;5065571;28;20028;-76
2024/01/25 02:41:15;;;;;;;45.83;6.20;;;7.50;99.90;;;;;;5056225;28;20032;-76
2024/01/25 02:43:40;;;;;;;46.78;6.68;;;7.50;99.90;;;;;;5057879;28;20023;-76
2024/01/25 02:46:07;;;;;;;44.55;6.65;;;7.50;99.90;;;;;;5062816;28;20100;-76
2024/01/25 02:48:34;;;;;;;45.20;6.35;;;7.50;99.90;;;;;;5065316;28;20039;-76
2024/01/25 02:51:00;;;;;;;52.10;6.50;;;7.40;99.90;;;;;;5058073;28;20032;-76
2024/01/25 02:53:25;;;;;;;52.40;6.68;;;7.40;99.90;;;;;;5060406;28;20375;-76
2024/01/25 02:55:51;;;;;;;44.83;7.20;;;7.30;99.90;;;;;;5064417;28;20500;-76
2024/01/25 02:58:16;;;;;;;46.03;6.22;;;7.30;99.90;;;;;;5059623;28;20023;-76
2024/01/25 03:00:42;;;;;;;51.97;7.20;;;7.30;99.90;;;;;;5061134;28;20035;-76
2024/01/25 03:03:08;;;;;;;46.03;6.63;;;7.30;99.90;;;;;;5053807;28;20025;-76
2024/01/25 03:05:34;;;;;;;55.58;6.75;;;7.20;99.90;;;;;;5056397;28;20067;-76
2024/01/25 03:08:00;;;;;;;52.38;7.32;;;7.20;99.90;;;;;;5061245;28;20029;-76
2024/01/25 03:10:25;;;;;;;49.78;6.50;;;7.20;99.90;;;;;;5071549;28;20095;-76
2024/01/25 03:12:51;;;;;;;51.03;6.28;;;7.20;99.90;;;;;;5058335;28;20375;-76
2024/01/25 03:15:17;;;;;;;39.78;6.38;;;7.10;99.90;;;;;;5066381;28;20384;-75
2024/01/25 03:17:43;;;;;;;43.75;6.47;;;7.10;99.90;;;;;;5056656;28;20020;-76
2024/01/25 03:20:09;;;;;;;52.85;8.02;;;7.10;99.90;;;;;;5068182;28;20116;-76
2024/01/25 03:22:35;;;;;;;44.05;6.03;;;7.00;99.90;;;;;;5070284;28;20028;-76
2024/01/25 03:25:01;;;;;;;58.35;7.10;;;7.10;99.90;;;;;;5056593;28;20024;-76
2024/01/25 03:27:26;;;;;;;46.85;7.00;;;7.00;99.90;;;;;;5063413;28;20037;-76
2024/01/25 03:29:52;;;;;;;45.47;6.43;;;7.00;99.90;;;;;;5054080;28;20040;-76
2024/01/25 03:32:18;;;;;;;45.45;6.75;;;7.00;99.90;;;;;;5070461;28;20037;-76
2024/01/25 03:34:43;;;;;;;41.63;5.75;;;7.00;99.90;;;;;;5068037;28;20052;-76
2024/01/25 03:37:09;;;;;;;50.38;6.95;;;6.90;99.90;;;;;;5052980;28;20032;-76
2024/01/25 03:39:35;;;;;;;45.20;6.65;;;6.90;99.90;;;;;;5062646;28;20116;-76
2024/01/25 03:42:00;;;;;;;45.33;6.47;;;6.80;99.90;;;;;;5052817;28;20028;-76
2024/01/25 03:44:26;;;;;;;45.25;6.53;;;6.80;99.90;;;;;;5066117;28;20146;-76
2024/01/25 03:46:51;;;;;;;42.65;6.40;;;6.80;99.90;;;;;;5051224;28;20032;-76
2024/01/25 03:49:17;;;;;;;46.47;6.28;;;6.80;99.90;;;;;;5058976;28;20107;-76
2024/01/25 03:51:42;;;;;;;42.85;6.38;;;6.70;99.90;;;;;;5052965;28;20017;-76
2024/01/25 03:54:08;;;;;;;37.45;6.25;;;6.60;99.90;;;;;;5059324;28;20017;-76
2024/01/25 03:56:33;;;;;;;49.72;6.18;;;6.60;99.90;;;;;;5052486;28;20035;-76
2024/01/25 03:58:59;;;;;;;49.05;6.60;;;6.50;99.90;;;;;;5052813;28;20495;-76
2024/01/25 04:01:24;;;;;;;45.38;5.97;;;6.60;99.90;;;;;;5058619;28;20408;-76
2024/01/25 04:03:50;;;;;;;50.13;7.60;;;6.50;99.90;;;;;;5058243;28;20017;-76
2024/01/25 04:06:16;;;;;;;47.25;6.22;;;6.50;99.90;;;;;;5071375;28;20027;-76
2024/01/25 04:08:41;;;;;;;56.30;7.35;;;6.50;99.90;;;;;;5065755;28;20021;-76
2024/01/25 04:11:09;;;;;;;51.95;7.00;;;6.50;99.90;;;;;;5065456;28;20402;-76
2024/01/25 04:13:35;;;;;;;43.92;6.93;;;6.40;99.90;;;;;;5052149;28;20013;-76
2024/01/25 04:16:00;;;;;;;44.28;6.43;;;6.40;99.90;;;;;;5055701;28;20037;-76
2024/01/25 04:18:26;;;;;;;45.45;6.00;;;6.40;99.90;;;;;;5056550;28;20053;-76
2024/01/25 04:20:51;;;;;;;44.75;6.45;;;6.40;99.90;;;;;;5058156;28;20040;-76
2024/01/25 04:23:17;;;;;;;44.75;7.03;;;6.30;99.90;;;;;;5058966;28;20103;-76
2024/01/25 04:25:44;;;;;;;53.80;7.25;;;6.30;99.90;;;;;;5056619;28;20032;-76
2024/01/25 04:28:09;;;;;;;45.20;6.57;;;6.20;99.90;;;;;;5058929;28;20074;-76
2024/01/25 04:30:35;;;;;;;48.78;6.63;;;6.20;99.90;;;;;;5063680;28;20028;-76
2024/01/25 04:33:00;;;;;;;46.15;5.93;;;6.20;99.90;;;;;;5063895;28;20028;-76
2024/01/25 04:35:26;;;;;;;49.22;6.35;;;6.10;99.90;;;;;;5064351;28;20029;-76
2024/01/25 04:37:51;;;;;;;49.28;6.70;;;6.10;99.90;;;;;;5053440;28;20021;-76
2024/01/25 04:40:17;;;;;;;47.15;7.10;;;6.00;99.90;;;;;;5059209;28;20020;-76
2024/01/25 04:42:43;;;;;;;37.85;6.65;;;6.00;99.90;;;;;;5056411;28;20052;-76
2024/01/25 04:45:08;;;;;;;36.97;6.40;;;5.90;99.90;;;;;;5064804;28;20391;-76
2024/01/25 04:47:34;;;;;;;39.10;6.35;;;5.90;99.90;;;;;;5051016;28;20036;-76
2024/01/25 04:49:59;;;;;;;50.00;7.03;;;5.80;99.90;;;;;;5059834;28;20024;-76
2024/01/25 04:52:25;;;;;;;46.63;6.60;;;5.80;99.90;;;;;;5061020;28;20082;-76
2024/01/25 04:54:51;;;;;;;54.30;6.78;;;5.70;99.90;;;;;;5054166;28;20476;-76
2024/01/25 04:57:16;;;;;;;54.40;7.68;;;5.70;99.90;;;;;;5050921;28;20033;-76
2024/01/25 04:59:42;;;;;;;40.13;5.93;;;5.70;99.90;;;;;;5059892;28;20029;-76
2024/01/25 05:02:08;;;;;;;53.42;6.65;;;5.70;99.90;;;;;;5065301;28;20120;-76
2024/01/25 05:04:34;;;;;;;49.85;6.85;;;5.70;99.90;;;;;;5051524;28;20115;-76
2024/01/25 05:07:00;;;;;;;47.10;6.43;;;5.70;99.90;;;;;;5052491;28;20025;-74
2024/01/25 05:09:26;;;;;;;39.70;6.72;;;5.70;99.90;;;;;;5050666;28;20025;-77
2024/01/25 05:11:51;;;;;;;42.05;5.97;;;5.70;99.90;;;;;;5051207;28;20032;-77
2024/01/25 05:14:17;;;;;;;43.78;6.85;;;5.60;99.90;;;;;;5052116;28;20028;-77
2024/01/25 05:16:42;;;;;;;46.70;7.35;;;5.70;99.90;;;;;;5052704;28;20070;-77
2024/01/25 05:19:08;;;;;;;57.83;7.07;;;5.70;99.90;;;;;;5052447;28;20139;-77
2024/01/25 05:21:33;;;;;;;49.53;6.35;;;5.60;99.90;;;;;;5063963;28;20032;-77
2024/01/25 05:24:00;;;;;;;50.47;6.50;;;5.60;99.90;;;;;;5061240;28;20024;-77
2024/01/25 05:26:25;;;;;;;53.10;6.72;;;5.60;99.90;;;;;;5057744;28;20115;-77
2024/01/25 05:28:51;;;;;;;47.28;7.00;;;5.60;99.90;;;;;;5050570;28;20446;-77
2024/01/25 05:31:17;;;;;;;47.00;7.53;;;5.60;99.90;;;;;;5050763;28;20120;-77
2024/01/25 05:33:42;;;;;;;46.60;6.70;;;5.60;99.90;;;;;;5062840;28;20021;-77
2024/01/25 05:36:09;;;;;;;57.60;7.90;;;5.60;99.90;;;;;;5059739;28;20536;-77
2024/01/25 05:38:35;;;;;;;49.30;7.38;;;5.60;99.90;;;;;;5051256;28;20380;-77
2024/01/25 05:41:00;;;;;;;40.55;6.95;;;5.50;99.90;;;;;;5058414;28;20013;-77
2024/01/25 05:43:26;;;;;;;48.03;6.88;;;5.50;99.90;;;;;;5054067;28;20129;-77
2024/01/25 05:45:51;;;;;;;45.63;7.28;;;5.50;99.90;;;;;;5049912;28;20021;-77
2024/01/25 05:48:17;;;;;;;45.00;6.85;;;5.50;99.90;;;;;;5057212;28;20155;-77
2024/01/25 05:50:43;;;;;;;56.78;8.00;;;5.50;99.90;;;;;;5051309;28;20016;-77
2024/01/25 05:53:09;;;;;;;53.67;7.63;;;5.40;99.90;;;;;;5052007;28;20040;-77
2024/01/25 05:55:34;;;;;;;42.80;6.60;;;5.40;99.90;;;;;;5049632;28;20024;-77
2024/01/25 05:58:00;;;;;;;54.08;8.13;;;5.40;99.90;;;;;;5061842;28;20036;-76
2024/01/25 06:00:26;;;;;;;54.08;8.00;;;5.40;99.90;;;;;;5056178;28;20025;-77
2024/01/25 06:02:51;;;;;;;44.67;6.68;;;5.40;99.90;;;;;;5053783;28;20017;-76
2024/01/25 06:05:18;;;;;;;52.35;7.80;;;5.40;99.90;;;;;;5063168;28;20060;-76
2024/01/25 06:07:43;;;;;;;50.08;6.82;;;5.30;99.90;;;;;;5051135;28;20047;-77
2024/01/25 06:10:09;;;;;;;54.05;7.20;;;5.30;99.90;;;;;;5057618;28;20021;-77
2024/01/25 06:12:35;;;;;;;49.83;7.05;;;5.30;99.90;;;;;;5065536;28;20028;-77
2024/01/25 06:15:01;;;;;;;50.97;7.13;;;5.30;99.90;;;;;;5066707;28;20513;-77
2024/01/25 06:17:26;;;;;;;49.00;7.68;;;5.30;99.90;;;;;;5055196;28;20043;-77
2024/01/25 06:19:52;;;;;;;43.13;7.32;;;5.30;99.90;;;;;;5049519;28;20130;-77
2024/01/25 06:22:18;;;;;;;55.28;7.07;;;5.20;99.90;;;;;;5059307;28;20032;-77
2024/01/25 06:24:44;;;;;;;58.78;8.07;;;5.20;99.90;;;;;;5052049;28;20139;-77
2024/01/25 06:27:12;;;;;;;49.67;7.63;;;5.20;99.90;;;;;;5057529;28;20104;-77
2024/01/25 06:29:38;;;;;;;49.70;7.47;;;5.20;99.90;;;;;;5055561;28;20035;-77
2024/01/25 06:32:04;;;;;;;52.58;7.35;;;5.20;99.90;;;;;;5058209;28;20036;-77
2024/01/25 06:34:29;;;;;;;45.65;7.20;;;5.20;99.90;;;;;;5058042;28;20541;-76
2024/01/25 06:36:55;;;;;;;52.45;8.10;;;5.20;99.90;;;;;;5053793;28;20033;-76
2024/01/25 06:39:20;;;;;;;48.65;6.95;;;5.20;99.90;;;;;;5054425;28;20133;-77
2024/01/25 06:41:46;;;;;;;58.63;8.10;;;5.20;99.90;;;;;;5054541;28;20033;-77
2024/01/25 06:44:12;;;;;;;55.13;7.68;;;5.20;99.90;;;;;;5052252;28;20028;-77
2024/01/25 06:46:38;;;;;;;51.90;7.57;;;5.20;99.90;;;;;;5059037;28;20028;-77
2024/01/25 06:49:04;;;;;;;52.47;8.13;;;5.20;99.90;;;;;;5061331;28;20062;-77
2024/01/25 06:51:29;;;;;;;57.38;7.93;;;5.20;99.90;;;;;;5062721;28;20036;-76
2024/01/25 06:53:55;;;;;;;52.60;7.90;;;5.20;99.90;;;;;;5054712;28;20029;-76
2024/01/25 06:56:20;;;;;;;48.72;7.57;;;5.20;99.90;;;;;;5060466;28;20090;-77
2024/01/25 06:58:46;;;;;;;53.25;9.02;;;5.30;99.90;;;;;;5050649;28;20162;-77
2024/01/25 07:01:12;;;;;;;69.07;9.30;;;5.20;99.90;;;;;;5056055;28;20013;-77
2024/01/25 07:03:37;;;;;;;67.47;9.15;;;5.30;99.90;;;;;;5061243;28;20029;-77
2024/01/25 07:06:04;;;;;;;58.25;9.00;;;5.30;99.90;;;;;;5053991;28;20032;-77
2024/01/25 07:08:29;;;;;;;47.92;9.02;;;5.30;99.90;;;;;;5054007;28;20059;-77
2024/01/25 07:10:56;;;;;;;50.95;7.53;;;5.30;99.90;;;;;;5062500;28;20265;-77
2024/01/25 07:13:21;;;;;;;57.78;8.30;;;5.30;99.90;;;;;;5047545;28;20021;-77
2024/01/25 07:15:47;;;;;;;51.25;8.20;;;5.30;99.90;;;;;;5059694;28;20546;-77
2024/01/25 07:18:13;;;;;;;54.25;8.23;;;5.30;99.90;;;;;;5054642;28;20036;-77
2024/01/25 07:20:38;;;;;;;56.97;9.20;;;5.20;99.90;;;;;;5059180;28;20528;-77
2024/01/25 07:23:04;;;;;;;56.80;8.68;;;5.30;99.90;;;;;;5053940;28;20027;-77
2024/01/25 07:25:29;;;;;;;58.05;8.15;;;5.30;99.90;;;;;;5066530;28;20029;-77
2024/01/25 07:27:55;;;;;;;60.65;8.55;;;5.30;99.90;;;;;;5064232;28;20065;-76
2024/01/25 07:30:21;;;;;;;46.55;8.63;;;5.30;99.90;;;;;;5064126;28;20036;-77
2024/01/25 07:32:46;;;;;;;56.97;8.77;;;5.30;99.90;;;;;;5056130;28;20028;-77
2024/01/25 07:35:12;;;;;;;43.78;7.80;;;5.30;99.90;;;;;;5058572;28;20052;-77
2024/01/25 07:37:41;;;;;;;53.17;7.78;;;5.30;99.90;;;;;;5061554;28;20139;-77
2024/01/25 07:40:08;;;;;;;50.45;7.45;;;5.30;99.90;;;;;;5052691;28;20051;-77
2024/01/25 07:42:34;;;;;;;55.92;7.85;;;5.30;99.90;;;;;;5055541;28;20029;-77
2024/01/25 07:45:00;;;;;;;50.60;7.55;;;5.30;99.90;;;;;;5056414;28;20028;-77
2024/01/25 07:47:25;;;;;;;63.67;9.60;;;5.30;99.90;;;;;;5056461;28;20017;-77
2024/01/25 07:49:51;;;;;;;49.05;7.78;;;5.30;99.90;;;;;;5063867;28;20033;-77
2024/01/25 07:52:17;;;;;;;64.10;9.80;;;5.30;99.90;;;;;;5056654;28;20104;-77
2024/01/25 07:54:44;;;;;;;55.50;9.60;;;5.30;99.90;;;;;;5050880;28;20112;-77
2024/01/25 07:57:10;;;;;;;47.72;8.90;;;5.30;99.90;;;;;;5054928;28;20365;-77
2024/01/25 07:59:35;;;;;;;52.22;8.95;;;5.30;99.90;;;;;;5053467;28;20025;-77
2024/01/25 08:02:01;;;;;;;60.40;10.15;;;5.30;99.90;;;;;;5053469;28;20013;-77
2024/01/25 08:04:27;;;;;;;55.65;10.23;;;5.30;99.90;;;;;;5053727;28;20032;-77
2024/01/25 08:06:52;;;;;;;58.67;10.13;;;5.40;99.90;;;;;;5068068;28;20464;-77
2024/01/25 08:09:18;;;;;;;63.03;10.02;;;5.40;99.90;;;;;;5063038;28;20064;-77
2024/01/25 08:11:44;;;;;;;57.30;9.85;;;5.40;99.90;;;;;;5057491;28;20017;-74
2024/01/25 08:14:11;;;;;;;65.90;10.65;;;5.50;99.90;;;;;;5064059;28;20051;-74
2024/01/25 08:16:36;;;;;;;54.65;9.80;;;5.50;99.90;;;;;;5065673;28;20387;-74
2024/01/25 08:19:02;;;;;;;62.00;11.65;;;5.50;99.90;;;;;;5055684;28;20136;-74
2024/01/25 08:21:28;;;;;;;56.80;11.55;;;5.60;99.90;;;;;;5056392;28;20023;-76
2024/01/25 08:23:54;;;;;;;53.53;10.93;;;5.60;99.90;;;;;;5060111;28;20108;-75
2024/01/25 08:26:19;;;;;;;61.78;10.82;;;5.60;99.90;;;;;;5060758;28;20028;-75
2024/01/25 08:28:46;;;;;;;63.25;11.23;;;5.60;99.90;;;;;;5070639;28;20491;-75
2024/01/25 08:31:12;;;;;;;60.10;10.27;;;5.60;99.90;;;;;;5064721;28;20038;-76
2024/01/25 08:33:44;;;;;;;54.65;10.02;;;5.60;99.90;;;;;;5065213;28;20387;-76
2024/01/25 08:36:09;;;;;;;62.72;10.82;;;5.70;99.90;;;;;;5062007;28;20354;-76
2024/01/25 08:38:35;;;;;;;57.03;10.20;;;5.70;99.90;;;;;;5060000;28;20119;-75
2024/01/25 08:41:01;;;;;;;55.63;11.63;;;5.80;99.90;;;;;;5066210;28;20048;-75
2024/01/25 08:43:27;;;;;;;67.03;12.50;;;5.80;99.90;;;;;;5053792;28;20033;-75
2024/01/25 08:45:52;;;;;;;68.85;11.85;;;5.80;99.90;;;;;;5061106;28;20028;-76
2024/01/25 08:48:18;;;;;;;58.45;12.25;;;5.80;99.90;;;;;;5052845;28;20086;-75
2024/01/25 08:50:44;;;;;;;64.43;12.18;;;5.90;99.90;;;;;;5050736;28;20071;-75
2024/01/25 08:53:09;;;;;;;53.67;12.07;;;5.90;99.90;;;;;;5052820;28;20017;-76
2024/01/25 08:55:35;;;;;;;49.78;11.93;;;6.00;99.90;;;;;;5064385;28;20074;-76
2024/01/25 08:58:01;;;;;;;60.08;12.27;;;6.00;99.90;;;;;;5054742;28;20030;-75
2024/01/25 09:00:26;;;;;;;59.75;12.68;;;6.00;99.90;;;;;;5070234;28;20028;-76
2024/01/25 09:02:53;;;;;;;54.58;11.55;;;6.00;99.90;;;;;;5064727;28;20017;-76
2024/01/25 09:05:18;;;;;;;57.95;11.63;;;6.00;99.90;;;;;;5057863;28;20029;-75
2024/01/25 09:07:44;;;;;;;56.80;11.73;;;6.10;99.90;;;;;;5050438;28;20067;-75
2024/01/25 09:10:09;;;;;;;59.35;10.77;;;6.10;99.90;;;;;;5053170;28;20074;-75
2024/01/25 09:12:37;;;;;;;54.03;11.20;;;6.10;99.90;;;;;;5064620;28;20025;-75
2024/01/25 09:15:02;;;;;;;60.28;10.48;;;6.20;99.90;;;;;;5059964;28;20016;-76
2024/01/25 09:17:28;;;;;;;54.42;10.35;;;6.20;99.90;;;;;;5065327;28;20032;-76
2024/01/25 09:19:54;;;;;;;59.00;11.00;;;6.20;99.90;;;;;;5051324;28;20049;-76
2024/01/25 09:22:19;;;;;;;48.92;10.23;;;6.30;99.90;;;;;;5051375;28;20469;-77
2024/01/25 09:24:48;;;;;;;54.80;10.73;;;6.30;99.90;;;;;;5052836;28;20025;-76
2024/01/25 09:27:14;;;;;;;53.97;10.30;;;6.30;99.90;;;;;;5064668;28;20021;-76
2024/01/25 09:29:40;;;;;;;55.10;9.95;;;6.30;99.90;;;;;;5051496;28;20086;-75
2024/01/25 09:32:08;;;;;;;53.70;9.43;;;6.30;99.90;;;;;;5051678;28;20035;-75
2024/01/25 09:34:34;;;;;;;46.58;8.85;;;6.30;99.90;;;;;;5060723;28;20342;-75
2024/01/25 09:36:59;;;;;;;58.88;9.93;;;6.40;99.90;;;;;;5052138;28;20024;-76
2024/01/25 09:39:25;;;;;;;58.30;9.55;;;6.30;99.90;;;;;;5057035;28;20388;-76
2024/01/25 09:41:53;;;;;;;56.17;9.88;;;6.30;99.90;;;;;;5056572;28;20025;-76
2024/01/25 09:44:18;;;;;;;45.83;8.57;;;6.40;99.90;;;;;;5049964;28;20051;-76
2024/01/25 09:46:45;;;;;;;45.78;9.73;;;6.40;99.90;;;;;;5056515;28;20058;-76
2024/01/25 09:49:11;;;;;;;48.53;9.60;;;6.40;99.90;;;;;;5056990;28;20486;-75
2024/01/25 09:51:39;;;;;;;44.72;9.80;;;6.50;99.90;;;;;;5063206;28;20108;-76
2024/01/25 09:54:05;;;;;;;43.67;9.63;;;6.50;99.90;;;;;;5059346;28;20017;-76
2024/01/25 09:56:32;;;;;;;48.55;9.85;;;6.50;99.90;;;;;;5050980;28;20052;-76
2024/01/25 09:58:58;;;;;;;68.45;10.32;;;6.60;99.90;;;;;;5060321;28;20028;-76
2024/01/25 10:01:24;;;;;;;60.15;10.15;;;6.60;99.90;;;;;;5062686;28;20115;-76
2024/01/25 10:03:50;;;;;;;56.10;10.20;;;6.60;99.90;;;;;;5060907;28;20181;-76
2024/01/25 10:06:16;;;;;;;45.85;9.95;;;6.60;99.90;;;;;;5049552;28;20032;-76
2024/01/25 10:08:43;;;;;;;51.38;9.63;;;6.70;99.90;;;;;;5050135;28;20021;-76
2024/01/25 10:11:08;;;;;;;53.70;9.80;;;6.70;99.90;;;;;;5057930;28;20163;-76
2024/01/25 10:13:42;;;;;;;50.40;9.02;;;6.70;99.90;;;;;;5066842;28;20103;-76
2024/01/25 10:16:11;;;;;;;39.80;8.95;;;6.70;99.90;;;;;;5054536;28;20043;-76
2024/01/25 10:18:36;;;;;;;47.53;9.30;;;6.80;99.90;;;;;;5057961;28;20060;-75
2024/01/25 10:21:03;;;;;;;55.20;9.73;;;6.80;99.90;;;;;;5061440;28;20059;-76
2024/01/25 10:23:29;;;;;;;48.72;9.95;;;6.80;99.90;;;;;;5050961;28;20025;-76
2024/01/25 10:25:56;;;;;;;55.72;9.80;;;6.90;99.90;;;;;;5062156;28;20028;-76
2024/01/25 10:28:25;;;;;;;58.35;10.50;;;6.90;99.90;;;;;;5049948;28;20040;-76
2024/01/25 10:30:51;;;;;;;51.65;10.05;;;6.90;99.90;;;;;;5063838;28;20383;-76
2024/01/25 10:33:17;;;;;;;48.50;9.18;;;6.90;99.90;;;;;;5049824;28;20026;-76
2024/01/25 10:35:49;;;;;;;58.10;10.27;;;7.00;99.90;;;;;;5061134;28;20052;-76
2024/01/25 10:38:18;;;;;;;49.90;10.60;;;7.00;99.90;;;;;;5054724;28;20394;-75
2024/01/25 10:40:46;;;;;;;52.08;9.70;;;7.00;99.90;;;;;;5055436;28;20025;-76
2024/01/25 10:43:12;;;;;;;53.50;10.10;;;7.00;99.90;;;;;;5051105;28;20431;-75
2024/01/25 10:45:38;;;;;;;47.10;9.50;;;7.00;99.90;;;;;;5053554;28;20025;-76
2024/01/25 10:48:04;;;;;;;46.70;9.48;;;7.10;99.90;;;;;;5067655;28;20024;-76
2024/01/25 10:50:30;;;;;;;48.30;9.13;;;7.00;99.90;;;;;;5055561;28;20026;-76
2024/01/25 10:52:56;;;;;;;50.85;9.75;;;7.10;99.90;;;;;;5055293;28;20083;-75
2024/01/25 10:55:22;;;;;;;59.45;10.98;;;7.10;99.90;;;;;;5061306;28;20099;-76
2024/01/25 10:57:47;;;;;;;51.00;9.75;;;7.10;99.90;;;;;;5059495;28;20108;-76
2024/01/25 11:00:15;;;;;;;57.80;10.02;;;7.10;99.90;;;;;;5065858;28;20100;-76
2024/01/25 11:02:42;;;;;;;52.60;9.45;;;7.10;99.90;;;;;;5068516;28;20149;-75
2024/01/25 11:05:18;;;;;;;49.40;10.43;;;7.10;99.90;;;;;;5060226;28;20108;-76
2024/01/25 11:07:46;;;;;;;59.08;10.18;;;7.10;99.90;;;;;;5062302;28;20071;-75
2024/01/25 11:10:17;;;;;;;61.25;10.30;;;7.20;99.90;;;;;;5056365;28;20032;-75
2024/01/25 11:12:52;;;;;;;45.22;10.57;;;7.20;99.90;;;;;;5063008;28;20029;-75
2024/01/25 11:15:44;;;;;;;52.20;10.52;;;7.30;99.90;;;;;;5069386;28;20040;-76
2024/01/25 11:18:10;;;;;;;51.20;11.73;;;7.30;99.90;;;;;;5061114;28;20075;-76
2024/01/25 11:20:37;;;;;;;57.80;11.40;;;7.30;99.90;;;;;;5061244;28;20040;-75
2024/01/25 11:23:04;;;;;;;58.08;11.95;;;7.40;99.90;;;;;;5053209;28;20443;-76
2024/01/25 11:25:34;;;;;;;58.70;11.88;;;7.50;99.90;;;;;;5063464;28;20154;-76
2024/01/25 11:28:01;;;;;;;51.38;11.70;;;7.50;99.90;;;;;;5054709;28;20024;-76
2024/01/25 11:30:29;;;;;;;67.95;12.13;;;7.60;99.90;;;;;;5054328;28;20043;-75
2024/01/25 11:32:55;;;;;;;60.72;13.02;;;7.60;99.90;;;;;;5052525;28;20380;-76
2024/01/25 11:35:21;;;;;;;58.38;13.70;;;7.60;99.90;;;;;;5062036;28;20564;-75
2024/01/25 11:37:48;;;;;;;65.13;14.20;;;7.70;99.90;;;;;;5065306;28;20041;-75
2024/01/25 11:40:15;;;;;;;60.80;14.18;;;7.70;99.90;;;;;;5052186;28;20028;-75
2024/01/25 11:42:43;;;;;;;54.85;12.40;;;7.80;99.90;;;;;;5053023;28;20051;-75
2024/01/25 11:45:12;;;;;;;63.45;12.57;;;7.80;99.90;;;;;;5054806;28;20020;-75
2024/01/25 11:47:39;;;;;;;56.55;12.73;;;7.90;99.90;;;;;;5060392;28;20029;-75
2024/01/25 11:50:06;;;;;;;67.72;13.32;;;7.90;99.90;;;;;;5065943;28;20025;-75
2024/01/25 11:52:33;;;;;;;58.90;12.93;;;8.00;99.90;;;;;;5055730;28;20048;-75
2024/01/25 11:55:01;;;;;;;55.05;12.30;;;8.10;99.90;;;;;;5053471;28;20009;-75
2024/01/25 11:57:26;;;;;;;59.63;12.23;;;8.10;99.90;;;;;;5063226;28;20371;-75
2024/01/25 11:59:52;;;;;;;58.72;12.27;;;8.10;99.90;;;;;;5057430;28;20027;-76
2024/01/25 12:02:18;;;;;;;54.17;11.95;;;8.20;99.90;;;;;;5064906;28;20036;-75
2024/01/25 12:04:47;;;;;;;55.13;11.23;;;8.20;99.90;;;;;;5060699;28;20028;-75
2024/01/25 12:07:12;;;;;;;56.45;11.90;;;8.30;99.90;;;;;;5066717;28;20032;-75
2024/01/25 12:09:38;;;;;;;54.20;12.15;;;8.30;99.90;;;;;;5059247;28;20035;-76
2024/01/25 12:12:05;;;;;;;53.65;11.68;;;8.30;99.90;;;;;;5064109;28;20025;-75
2024/01/25 12:14:30;;;;;;;50.33;11.45;;;8.30;99.90;;;;;;5052708;28;20032;-75
2024/01/25 12:16:56;;;;;;;55.92;11.48;;;8.40;99.90;;;;;;5061519;28;20029;-75
2024/01/25 12:19:22;;;;;;;50.25;11.38;;;8.40;99.90;;;;;;5065450;28;20110;-75
2024/01/25 12:21:48;;;;;;;49.50;10.88;;;8.40;99.90;;;;;;5059466;28;20552;-75
2024/01/25 12:24:13;;;;;;;52.35;11.25;;;8.40;99.90;;;;;;5068061;28;20016;-75
2024/01/25 12:26:42;;;;;;;54.88;10.38;;;8.40;99.90;;;;;;5056998;28;20537;-75
2024/01/25 12:29:10;;;;;;;58.53;11.40;;;8.50;99.90;;;;;;5066415;28;20522;-76
2024/01/25 12:31:36;;;;;;;57.42;10.57;;;8.50;99.90;;;;;;5066694;28;20433;-76
2024/01/25 12:34:02;;;;;;;57.00;10.85;;;8.50;99.90;;;;;;5063599;28;20469;-75
2024/01/25 12:36:27;;;;;;;53.78;9.98;;;8.50;99.90;;;;;;5055361;28;20095;-75